sensor_id;sensor_type;location;lat;lon;timestamp;P1;durP1;ratioP1;P2;durP2;ratioP2
39078;SDS011;24829;49.208;12.080;2023-05-20T00:00:18;7.53;;;4.03;;
39078;SDS011;24829;49.208;12.080;2023-05-20T00:02:44;4.07;;;3.47;;
39078;SDS011;24829;49.208;12.080;2023-05-20T00:05:09;4.88;;;3.42;;
39078;SDS011;24829;49.208;12.080;2023-05-20T00:07:35;4.63;;;3.30;;
39078;SDS011;24829;49.208;12.080;2023-05-20T00:10:01;6.80;;;4.18;;
39078;SDS011;24829;49.208;12.080;2023-05-20T00:12:26;5.88;;;3.90;;
39078;SDS011;24829;49.208;12.080;2023-05-20T00:14:52;6.75;;;3.97;;
39078;SDS011;24829;49.208;12.080;2023-05-20T00:17:17;6.20;;;4.35;;
39078;SDS011;24829;49.208;12.080;2023-05-20T00:19:43;6.00;;;4.05;;
39078;SDS011;24829;49.208;12.080;2023-05-20T00:22:09;5.72;;;3.80;;
39078;SDS011;24829;49.208;12.080;2023-05-20T00:24:35;6.25;;;4.30;;
39078;SDS011;24829;49.208;12.080;2023-05-20T00:27:00;4.78;;;4.10;;
39078;SDS011;24829;49.208;12.080;2023-05-20T00:29:26;7.72;;;3.85;;
39078;SDS011;24829;49.208;12.080;2023-05-20T00:31:52;4.82;;;4.15;;
39078;SDS011;24829;49.208;12.080;2023-05-20T00:34:18;7.65;;;4.32;;
39078;SDS011;24829;49.208;12.080;2023-05-20T00:36:44;7.03;;;4.25;;
39078;SDS011;24829;49.208;12.080;2023-05-20T00:39:10;7.10;;;4.45;;
39078;SDS011;24829;49.208;12.080;2023-05-20T00:41:36;5.00;;;4.25;;
39078;SDS011;24829;49.208;12.080;2023-05-20T00:44:02;7.53;;;4.00;;
39078;SDS011;24829;49.208;12.080;2023-05-20T00:46:28;5.65;;;4.43;;
39078;SDS011;24829;49.208;12.080;2023-05-20T00:48:54;5.10;;;4.53;;
39078;SDS011;24829;49.208;12.080;2023-05-20T00:51:20;9.65;;;4.78;;
39078;SDS011;24829;49.208;12.080;2023-05-20T00:53:46;7.57;;;4.70;;
39078;SDS011;24829;49.208;12.080;2023-05-20T00:56:11;7.32;;;5.00;;
39078;SDS011;24829;49.208;12.080;2023-05-20T00:58:38;8.23;;;4.53;;
39078;SDS011;24829;49.208;12.080;2023-05-20T01:01:04;6.78;;;4.80;;
39078;SDS011;24829;49.208;12.080;2023-05-20T01:03:30;6.03;;;4.85;;
39078;SDS011;24829;49.208;12.080;2023-05-20T01:05:56;8.25;;;4.72;;
39078;SDS011;24829;49.208;12.080;2023-05-20T01:08:22;7.85;;;5.05;;
39078;SDS011;24829;49.208;12.080;2023-05-20T01:11:02;6.53;;;5.13;;
39078;SDS011;24829;49.208;12.080;2023-05-20T01:13:33;5.35;;;4.32;;
39078;SDS011;24829;49.208;12.080;2023-05-20T01:16:20;5.63;;;4.50;;
39078;SDS011;24829;49.208;12.080;2023-05-20T01:18:48;6.32;;;5.22;;
39078;SDS011;24829;49.208;12.080;2023-05-20T01:21:15;6.20;;;5.22;;
39078;SDS011;24829;49.208;12.080;2023-05-20T01:23:42;6.75;;;5.30;;
39078;SDS011;24829;49.208;12.080;2023-05-20T01:26:08;9.00;;;5.03;;
39078;SDS011;24829;49.208;12.080;2023-05-20T01:28:37;9.52;;;5.70;;
39078;SDS011;24829;49.208;12.080;2023-05-20T01:31:04;9.90;;;6.07;;
39078;SDS011;24829;49.208;12.080;2023-05-20T01:33:35;8.45;;;5.32;;
39078;SDS011;24829;49.208;12.080;2023-05-20T01:36:01;7.90;;;5.55;;
39078;SDS011;24829;49.208;12.080;2023-05-20T01:38:27;6.72;;;5.75;;
39078;SDS011;24829;49.208;12.080;2023-05-20T01:40:53;8.35;;;5.85;;
39078;SDS011;24829;49.208;12.080;2023-05-20T01:43:21;8.40;;;5.10;;
39078;SDS011;24829;49.208;12.080;2023-05-20T01:45:47;9.10;;;5.63;;
39078;SDS011;24829;49.208;12.080;2023-05-20T01:48:13;8.20;;;5.32;;
39078;SDS011;24829;49.208;12.080;2023-05-20T01:50:38;7.45;;;5.70;;
39078;SDS011;24829;49.208;12.080;2023-05-20T01:53:04;9.38;;;6.32;;
39078;SDS011;24829;49.208;12.080;2023-05-20T01:55:32;7.25;;;6.00;;
39078;SDS011;24829;49.208;12.080;2023-05-20T01:57:58;6.68;;;5.43;;
39078;SDS011;24829;49.208;12.080;2023-05-20T02:00:23;7.70;;;6.38;;
39078;SDS011;24829;49.208;12.080;2023-05-20T02:02:49;6.80;;;5.88;;
39078;SDS011;24829;49.208;12.080;2023-05-20T02:05:15;8.05;;;5.93;;
39078;SDS011;24829;49.208;12.080;2023-05-20T02:07:40;7.57;;;5.93;;
39078;SDS011;24829;49.208;12.080;2023-05-20T02:10:06;8.23;;;6.43;;
39078;SDS011;24829;49.208;12.080;2023-05-20T02:12:32;10.32;;;6.13;;
39078;SDS011;24829;49.208;12.080;2023-05-20T02:14:58;8.57;;;5.63;;
39078;SDS011;24829;49.208;12.080;2023-05-20T02:17:23;7.13;;;6.22;;
39078;SDS011;24829;49.208;12.080;2023-05-20T02:19:49;10.60;;;6.00;;
39078;SDS011;24829;49.208;12.080;2023-05-20T02:22:15;7.38;;;5.85;;
39078;SDS011;24829;49.208;12.080;2023-05-20T02:24:40;10.13;;;5.95;;
39078;SDS011;24829;49.208;12.080;2023-05-20T02:27:07;6.15;;;5.32;;
39078;SDS011;24829;49.208;12.080;2023-05-20T02:29:33;9.43;;;6.22;;
39078;SDS011;24829;49.208;12.080;2023-05-20T02:31:58;8.38;;;6.65;;
39078;SDS011;24829;49.208;12.080;2023-05-20T02:34:24;9.10;;;6.35;;
39078;SDS011;24829;49.208;12.080;2023-05-20T02:36:50;8.95;;;6.05;;
39078;SDS011;24829;49.208;12.080;2023-05-20T02:39:16;9.35;;;6.80;;
39078;SDS011;24829;49.208;12.080;2023-05-20T02:41:42;11.10;;;7.30;;
39078;SDS011;24829;49.208;12.080;2023-05-20T02:44:07;8.48;;;6.70;;
39078;SDS011;24829;49.208;12.080;2023-05-20T02:46:33;11.70;;;7.78;;
39078;SDS011;24829;49.208;12.080;2023-05-20T02:48:58;7.88;;;6.30;;
39078;SDS011;24829;49.208;12.080;2023-05-20T02:51:24;8.65;;;6.60;;
39078;SDS011;24829;49.208;12.080;2023-05-20T02:53:50;8.32;;;6.85;;
39078;SDS011;24829;49.208;12.080;2023-05-20T02:56:15;10.90;;;7.70;;
39078;SDS011;24829;49.208;12.080;2023-05-20T02:58:45;8.23;;;6.68;;
39078;SDS011;24829;49.208;12.080;2023-05-20T03:01:10;10.60;;;6.97;;
39078;SDS011;24829;49.208;12.080;2023-05-20T03:03:36;8.07;;;7.25;;
39078;SDS011;24829;49.208;12.080;2023-05-20T03:06:02;10.98;;;7.30;;
39078;SDS011;24829;49.208;12.080;2023-05-20T03:08:27;9.43;;;7.38;;
39078;SDS011;24829;49.208;12.080;2023-05-20T03:10:53;8.70;;;7.13;;
39078;SDS011;24829;49.208;12.080;2023-05-20T03:13:19;9.32;;;8.32;;
39078;SDS011;24829;49.208;12.080;2023-05-20T03:15:44;11.57;;;7.82;;
39078;SDS011;24829;49.208;12.080;2023-05-20T03:18:10;9.75;;;7.80;;
39078;SDS011;24829;49.208;12.080;2023-05-20T03:20:37;9.50;;;8.10;;
39078;SDS011;24829;49.208;12.080;2023-05-20T03:23:03;10.05;;;8.23;;
39078;SDS011;24829;49.208;12.080;2023-05-20T03:25:30;9.35;;;7.78;;
39078;SDS011;24829;49.208;12.080;2023-05-20T03:27:56;11.13;;;7.45;;
39078;SDS011;24829;49.208;12.080;2023-05-20T03:30:24;10.43;;;7.72;;
39078;SDS011;24829;49.208;12.080;2023-05-20T03:32:51;11.00;;;8.25;;
39078;SDS011;24829;49.208;12.080;2023-05-20T03:35:17;9.63;;;8.38;;
39078;SDS011;24829;49.208;12.080;2023-05-20T03:37:42;11.48;;;8.45;;
39078;SDS011;24829;49.208;12.080;2023-05-20T03:40:08;11.20;;;8.63;;
39078;SDS011;24829;49.208;12.080;2023-05-20T03:42:34;10.85;;;8.23;;
39078;SDS011;24829;49.208;12.080;2023-05-20T03:45:00;9.05;;;7.95;;
39078;SDS011;24829;49.208;12.080;2023-05-20T03:47:26;10.85;;;8.27;;
39078;SDS011;24829;49.208;12.080;2023-05-20T03:49:52;11.13;;;9.05;;
39078;SDS011;24829;49.208;12.080;2023-05-20T03:52:18;12.73;;;8.98;;
39078;SDS011;24829;49.208;12.080;2023-05-20T03:54:43;10.07;;;8.88;;
39078;SDS011;24829;49.208;12.080;2023-05-20T03:57:09;12.25;;;9.20;;
39078;SDS011;24829;49.208;12.080;2023-05-20T03:59:35;10.27;;;8.00;;
39078;SDS011;24829;49.208;12.080;2023-05-20T04:02:01;12.18;;;8.57;;
39078;SDS011;24829;49.208;12.080;2023-05-20T04:04:27;13.43;;;9.50;;
39078;SDS011;24829;49.208;12.080;2023-05-20T04:06:53;10.88;;;8.52;;
39078;SDS011;24829;49.208;12.080;2023-05-20T04:09:20;16.75;;;8.93;;
39078;SDS011;24829;49.208;12.080;2023-05-20T04:11:46;11.68;;;9.18;;
39078;SDS011;24829;49.208;12.080;2023-05-20T04:14:11;12.55;;;8.68;;
39078;SDS011;24829;49.208;12.080;2023-05-20T04:16:37;11.85;;;9.68;;
39078;SDS011;24829;49.208;12.080;2023-05-20T04:19:03;10.05;;;8.48;;
39078;SDS011;24829;49.208;12.080;2023-05-20T04:21:28;12.57;;;9.60;;
39078;SDS011;24829;49.208;12.080;2023-05-20T04:23:55;10.13;;;7.50;;
39078;SDS011;24829;49.208;12.080;2023-05-20T04:26:21;9.05;;;7.47;;
39078;SDS011;24829;49.208;12.080;2023-05-20T04:28:46;9.38;;;8.00;;
39078;SDS011;24829;49.208;12.080;2023-05-20T04:31:15;8.07;;;6.07;;
39078;SDS011;24829;49.208;12.080;2023-05-20T04:33:40;8.55;;;7.25;;
39078;SDS011;24829;49.208;12.080;2023-05-20T04:36:08;10.23;;;7.53;;
39078;SDS011;24829;49.208;12.080;2023-05-20T04:38:36;9.07;;;7.50;;
39078;SDS011;24829;49.208;12.080;2023-05-20T04:41:01;8.65;;;7.30;;
39078;SDS011;24829;49.208;12.080;2023-05-20T04:43:28;10.05;;;7.82;;
39078;SDS011;24829;49.208;12.080;2023-05-20T04:45:56;8.40;;;7.45;;
39078;SDS011;24829;49.208;12.080;2023-05-20T04:48:23;9.23;;;7.90;;
39078;SDS011;24829;49.208;12.080;2023-05-20T04:50:49;9.93;;;7.90;;
39078;SDS011;24829;49.208;12.080;2023-05-20T04:53:16;14.55;;;10.15;;
39078;SDS011;24829;49.208;12.080;2023-05-20T04:55:42;11.13;;;7.97;;
39078;SDS011;24829;49.208;12.080;2023-05-20T04:58:08;9.38;;;7.75;;
39078;SDS011;24829;49.208;12.080;2023-05-20T05:00:39;9.55;;;7.32;;
39078;SDS011;24829;49.208;12.080;2023-05-20T05:03:08;8.45;;;7.00;;
39078;SDS011;24829;49.208;12.080;2023-05-20T05:05:34;8.32;;;6.75;;
39078;SDS011;24829;49.208;12.080;2023-05-20T05:08:06;10.20;;;7.72;;
39078;SDS011;24829;49.208;12.080;2023-05-20T05:10:38;8.05;;;7.18;;
39078;SDS011;24829;49.208;12.080;2023-05-20T05:13:03;8.77;;;6.78;;
39078;SDS011;24829;49.208;12.080;2023-05-20T05:15:29;9.15;;;7.20;;
39078;SDS011;24829;49.208;12.080;2023-05-20T05:17:54;8.10;;;6.82;;
39078;SDS011;24829;49.208;12.080;2023-05-20T05:20:20;8.52;;;7.05;;
39078;SDS011;24829;49.208;12.080;2023-05-20T05:22:46;10.35;;;7.30;;
39078;SDS011;24829;49.208;12.080;2023-05-20T05:25:14;9.13;;;6.88;;
39078;SDS011;24829;49.208;12.080;2023-05-20T05:27:40;8.88;;;6.55;;
39078;SDS011;24829;49.208;12.080;2023-05-20T05:30:05;9.90;;;7.20;;
39078;SDS011;24829;49.208;12.080;2023-05-20T05:32:32;9.68;;;7.55;;
39078;SDS011;24829;49.208;12.080;2023-05-20T05:34:57;8.52;;;7.25;;
39078;SDS011;24829;49.208;12.080;2023-05-20T05:37:23;7.28;;;6.40;;
39078;SDS011;24829;49.208;12.080;2023-05-20T05:39:49;9.48;;;7.47;;
39078;SDS011;24829;49.208;12.080;2023-05-20T05:42:15;9.40;;;6.75;;
39078;SDS011;24829;49.208;12.080;2023-05-20T05:44:40;9.27;;;6.55;;
39078;SDS011;24829;49.208;12.080;2023-05-20T05:47:06;9.90;;;7.00;;
39078;SDS011;24829;49.208;12.080;2023-05-20T05:49:32;12.82;;;8.18;;
39078;SDS011;24829;49.208;12.080;2023-05-20T05:51:58;8.00;;;7.20;;
39078;SDS011;24829;49.208;12.080;2023-05-20T05:54:23;7.50;;;6.68;;
39078;SDS011;24829;49.208;12.080;2023-05-20T05:56:52;7.68;;;6.45;;
39078;SDS011;24829;49.208;12.080;2023-05-20T05:59:20;9.88;;;7.63;;
39078;SDS011;24829;49.208;12.080;2023-05-20T06:01:46;8.15;;;7.28;;
39078;SDS011;24829;49.208;12.080;2023-05-20T06:04:11;9.45;;;7.07;;
39078;SDS011;24829;49.208;12.080;2023-05-20T06:06:37;8.77;;;6.80;;
39078;SDS011;24829;49.208;12.080;2023-05-20T06:09:03;8.30;;;7.40;;
39078;SDS011;24829;49.208;12.080;2023-05-20T06:11:28;9.45;;;7.50;;
39078;SDS011;24829;49.208;12.080;2023-05-20T06:13:54;7.70;;;6.70;;
39078;SDS011;24829;49.208;12.080;2023-05-20T06:16:20;9.23;;;7.13;;
39078;SDS011;24829;49.208;12.080;2023-05-20T06:18:46;8.40;;;6.53;;
39078;SDS011;24829;49.208;12.080;2023-05-20T06:21:14;8.50;;;6.70;;
39078;SDS011;24829;49.208;12.080;2023-05-20T06:23:40;9.60;;;7.40;;
39078;SDS011;24829;49.208;12.080;2023-05-20T06:26:05;8.50;;;6.72;;
39078;SDS011;24829;49.208;12.080;2023-05-20T06:28:31;8.90;;;6.85;;
39078;SDS011;24829;49.208;12.080;2023-05-20T06:30:56;11.10;;;7.53;;
39078;SDS011;24829;49.208;12.080;2023-05-20T06:33:22;6.97;;;6.28;;
39078;SDS011;24829;49.208;12.080;2023-05-20T06:35:51;9.05;;;6.53;;
39078;SDS011;24829;49.208;12.080;2023-05-20T06:38:18;8.00;;;7.13;;
39078;SDS011;24829;49.208;12.080;2023-05-20T06:40:44;7.57;;;6.82;;
39078;SDS011;24829;49.208;12.080;2023-05-20T06:43:09;7.13;;;6.43;;
39078;SDS011;24829;49.208;12.080;2023-05-20T06:45:35;7.88;;;6.47;;
39078;SDS011;24829;49.208;12.080;2023-05-20T06:48:00;8.77;;;6.85;;
39078;SDS011;24829;49.208;12.080;2023-05-20T06:50:26;8.15;;;7.10;;
39078;SDS011;24829;49.208;12.080;2023-05-20T06:52:52;12.45;;;7.00;;
39078;SDS011;24829;49.208;12.080;2023-05-20T06:55:18;7.60;;;6.85;;
39078;SDS011;24829;49.208;12.080;2023-05-20T06:57:44;8.43;;;7.07;;
39078;SDS011;24829;49.208;12.080;2023-05-20T07:00:09;8.68;;;6.80;;
39078;SDS011;24829;49.208;12.080;2023-05-20T07:02:37;10.60;;;7.05;;
39078;SDS011;24829;49.208;12.080;2023-05-20T07:05:03;11.75;;;7.63;;
39078;SDS011;24829;49.208;12.080;2023-05-20T07:07:29;7.47;;;6.25;;
39078;SDS011;24829;49.208;12.080;2023-05-20T07:09:56;11.63;;;7.25;;
39078;SDS011;24829;49.208;12.080;2023-05-20T07:12:22;7.55;;;6.85;;
39078;SDS011;24829;49.208;12.080;2023-05-20T07:14:48;7.22;;;6.18;;
39078;SDS011;24829;49.208;12.080;2023-05-20T07:17:13;8.40;;;6.50;;
39078;SDS011;24829;49.208;12.080;2023-05-20T07:19:39;7.05;;;6.35;;
39078;SDS011;24829;49.208;12.080;2023-05-20T07:22:05;7.70;;;6.90;;
39078;SDS011;24829;49.208;12.080;2023-05-20T07:24:30;7.90;;;6.88;;
39078;SDS011;24829;49.208;12.080;2023-05-20T07:26:56;9.80;;;7.28;;
39078;SDS011;24829;49.208;12.080;2023-05-20T07:29:22;12.93;;;6.47;;
39078;SDS011;24829;49.208;12.080;2023-05-20T07:31:48;8.75;;;6.70;;
39078;SDS011;24829;49.208;12.080;2023-05-20T07:34:13;7.28;;;6.43;;
39078;SDS011;24829;49.208;12.080;2023-05-20T07:36:39;7.28;;;6.50;;
39078;SDS011;24829;49.208;12.080;2023-05-20T07:39:04;7.72;;;6.90;;
39078;SDS011;24829;49.208;12.080;2023-05-20T07:41:30;8.13;;;6.25;;
39078;SDS011;24829;49.208;12.080;2023-05-20T07:43:56;8.55;;;6.38;;
39078;SDS011;24829;49.208;12.080;2023-05-20T07:46:21;9.55;;;6.60;;
39078;SDS011;24829;49.208;12.080;2023-05-20T07:48:47;8.07;;;7.28;;
39078;SDS011;24829;49.208;12.080;2023-05-20T07:51:12;8.98;;;7.57;;
39078;SDS011;24829;49.208;12.080;2023-05-20T07:53:38;6.72;;;6.13;;
39078;SDS011;24829;49.208;12.080;2023-05-20T07:56:04;6.82;;;6.20;;
39078;SDS011;24829;49.208;12.080;2023-05-20T07:58:30;9.57;;;7.10;;
39078;SDS011;24829;49.208;12.080;2023-05-20T08:00:55;7.85;;;6.60;;
39078;SDS011;24829;49.208;12.080;2023-05-20T08:03:21;9.63;;;7.32;;
39078;SDS011;24829;49.208;12.080;2023-05-20T08:05:47;9.63;;;7.45;;
39078;SDS011;24829;49.208;12.080;2023-05-20T08:08:13;8.40;;;6.40;;
39078;SDS011;24829;49.208;12.080;2023-05-20T08:10:40;7.07;;;6.22;;
39078;SDS011;24829;49.208;12.080;2023-05-20T08:13:05;8.13;;;6.53;;
39078;SDS011;24829;49.208;12.080;2023-05-20T08:15:31;9.70;;;6.63;;
39078;SDS011;24829;49.208;12.080;2023-05-20T08:17:56;8.50;;;6.90;;
39078;SDS011;24829;49.208;12.080;2023-05-20T08:20:22;9.75;;;7.10;;
39078;SDS011;24829;49.208;12.080;2023-05-20T08:22:47;8.05;;;6.85;;
39078;SDS011;24829;49.208;12.080;2023-05-20T08:25:13;11.02;;;7.10;;
39078;SDS011;24829;49.208;12.080;2023-05-20T08:27:39;11.90;;;7.63;;
39078;SDS011;24829;49.208;12.080;2023-05-20T08:30:05;8.60;;;7.70;;
39078;SDS011;24829;49.208;12.080;2023-05-20T08:32:33;15.48;;;7.93;;
39078;SDS011;24829;49.208;12.080;2023-05-20T08:34:59;12.05;;;8.55;;
39078;SDS011;24829;49.208;12.080;2023-05-20T08:37:26;9.35;;;7.47;;
39078;SDS011;24829;49.208;12.080;2023-05-20T08:39:53;9.73;;;7.38;;
39078;SDS011;24829;49.208;12.080;2023-05-20T08:42:20;7.88;;;6.57;;
39078;SDS011;24829;49.208;12.080;2023-05-20T08:44:47;8.40;;;7.50;;
39078;SDS011;24829;49.208;12.080;2023-05-20T08:47:14;9.43;;;7.40;;
39078;SDS011;24829;49.208;12.080;2023-05-20T08:49:40;9.32;;;7.38;;
39078;SDS011;24829;49.208;12.080;2023-05-20T08:52:05;12.55;;;7.57;;
39078;SDS011;24829;49.208;12.080;2023-05-20T08:54:44;8.00;;;7.30;;
39078;SDS011;24829;49.208;12.080;2023-05-20T08:57:11;9.65;;;7.70;;
39078;SDS011;24829;49.208;12.080;2023-05-20T08:59:39;7.40;;;6.70;;
39078;SDS011;24829;49.208;12.080;2023-05-20T09:02:09;11.33;;;7.10;;
39078;SDS011;24829;49.208;12.080;2023-05-20T09:04:35;9.73;;;6.70;;
39078;SDS011;24829;49.208;12.080;2023-05-20T09:07:01;8.00;;;7.20;;
39078;SDS011;24829;49.208;12.080;2023-05-20T09:09:28;9.48;;;7.03;;
39078;SDS011;24829;49.208;12.080;2023-05-20T09:11:54;9.23;;;7.18;;
39078;SDS011;24829;49.208;12.080;2023-05-20T09:14:19;8.55;;;7.20;;
39078;SDS011;24829;49.208;12.080;2023-05-20T09:16:46;10.40;;;8.05;;
39078;SDS011;24829;49.208;12.080;2023-05-20T09:19:13;10.57;;;7.68;;
39078;SDS011;24829;49.208;12.080;2023-05-20T09:21:40;9.15;;;7.35;;
39078;SDS011;24829;49.208;12.080;2023-05-20T09:24:05;8.38;;;7.43;;
39078;SDS011;24829;49.208;12.080;2023-05-20T09:26:31;11.57;;;7.65;;
39078;SDS011;24829;49.208;12.080;2023-05-20T09:28:57;8.68;;;7.88;;
39078;SDS011;24829;49.208;12.080;2023-05-20T09:31:27;9.07;;;8.07;;
39078;SDS011;24829;49.208;12.080;2023-05-20T09:33:54;11.05;;;8.00;;
39078;SDS011;24829;49.208;12.080;2023-05-20T09:36:21;8.27;;;7.38;;
39078;SDS011;24829;49.208;12.080;2023-05-20T09:38:49;7.95;;;7.15;;
39078;SDS011;24829;49.208;12.080;2023-05-20T09:41:20;8.60;;;7.80;;
39078;SDS011;24829;49.208;12.080;2023-05-20T09:43:48;7.60;;;6.70;;
39078;SDS011;24829;49.208;12.080;2023-05-20T09:46:15;9.88;;;7.40;;
39078;SDS011;24829;49.208;12.080;2023-05-20T09:48:41;7.97;;;7.20;;
39078;SDS011;24829;49.208;12.080;2023-05-20T09:51:08;8.13;;;7.32;;
39078;SDS011;24829;49.208;12.080;2023-05-20T09:53:35;8.40;;;7.60;;
39078;SDS011;24829;49.208;12.080;2023-05-20T09:56:01;7.78;;;7.07;;
39078;SDS011;24829;49.208;12.080;2023-05-20T09:58:28;8.45;;;7.22;;
39078;SDS011;24829;49.208;12.080;2023-05-20T10:00:54;11.30;;;7.63;;
39078;SDS011;24829;49.208;12.080;2023-05-20T10:03:22;10.35;;;7.78;;
39078;SDS011;24829;49.208;12.080;2023-05-20T10:06:05;10.68;;;8.25;;
39078;SDS011;24829;49.208;12.080;2023-05-20T10:14:45;8.68;;;7.78;;
39078;SDS011;24829;49.208;12.080;2023-05-20T10:17:20;9.48;;;7.82;;
39078;SDS011;24829;49.208;12.080;2023-05-20T10:20:06;11.68;;;7.65;;
39078;SDS011;24829;49.208;12.080;2023-05-20T10:22:36;9.60;;;7.13;;
39078;SDS011;24829;49.208;12.080;2023-05-20T10:25:05;11.05;;;7.68;;
39078;SDS011;24829;49.208;12.080;2023-05-20T10:27:45;9.85;;;7.88;;
39078;SDS011;24829;49.208;12.080;2023-05-20T10:30:18;9.75;;;7.88;;
39078;SDS011;24829;49.208;12.080;2023-05-20T10:32:52;13.45;;;10.10;;
39078;SDS011;24829;49.208;12.080;2023-05-20T10:35:22;9.13;;;8.15;;
39078;SDS011;24829;49.208;12.080;2023-05-20T10:37:52;9.77;;;7.97;;
39078;SDS011;24829;49.208;12.080;2023-05-20T10:40:19;12.63;;;8.32;;
39078;SDS011;24829;49.208;12.080;2023-05-20T10:42:46;15.45;;;8.52;;
39078;SDS011;24829;49.208;12.080;2023-05-20T10:45:34;10.45;;;7.68;;
39078;SDS011;24829;49.208;12.080;2023-05-20T10:48:01;8.90;;;7.60;;
39078;SDS011;24829;49.208;12.080;2023-05-20T10:52:54;11.02;;;8.77;;
39078;SDS011;24829;49.208;12.080;2023-05-20T10:55:33;9.73;;;8.63;;
39078;SDS011;24829;49.208;12.080;2023-05-20T10:58:00;10.45;;;9.20;;
39078;SDS011;24829;49.208;12.080;2023-05-20T11:00:26;12.57;;;8.68;;
39078;SDS011;24829;49.208;12.080;2023-05-20T11:02:52;12.10;;;8.25;;
39078;SDS011;24829;49.208;12.080;2023-05-20T11:05:20;9.40;;;8.43;;
39078;SDS011;24829;49.208;12.080;2023-05-20T11:07:46;12.32;;;8.57;;
39078;SDS011;24829;49.208;12.080;2023-05-20T11:10:11;9.60;;;8.60;;
39078;SDS011;24829;49.208;12.080;2023-05-20T11:12:37;10.27;;;9.23;;
39078;SDS011;24829;49.208;12.080;2023-05-20T11:15:03;10.20;;;8.25;;
39078;SDS011;24829;49.208;12.080;2023-05-20T11:17:29;9.63;;;8.20;;
39078;SDS011;24829;49.208;12.080;2023-05-20T11:19:55;12.45;;;8.27;;
39078;SDS011;24829;49.208;12.080;2023-05-20T11:22:21;8.50;;;7.70;;
39078;SDS011;24829;49.208;12.080;2023-05-20T11:24:46;8.68;;;7.88;;
39078;SDS011;24829;49.208;12.080;2023-05-20T11:27:12;12.27;;;8.40;;
39078;SDS011;24829;49.208;12.080;2023-05-20T11:29:37;14.15;;;7.93;;
39078;SDS011;24829;49.208;12.080;2023-05-20T11:32:04;9.55;;;8.25;;
39078;SDS011;24829;49.208;12.080;2023-05-20T11:34:32;10.25;;;9.07;;
39078;SDS011;24829;49.208;12.080;2023-05-20T11:37:00;10.27;;;8.23;;
39078;SDS011;24829;49.208;12.080;2023-05-20T11:39:28;11.27;;;8.43;;
39078;SDS011;24829;49.208;12.080;2023-05-20T11:41:54;9.60;;;7.45;;
39078;SDS011;24829;49.208;12.080;2023-05-20T11:44:19;9.05;;;8.15;;
39078;SDS011;24829;49.208;12.080;2023-05-20T11:46:45;9.13;;;8.23;;
39078;SDS011;24829;49.208;12.080;2023-05-20T11:49:15;8.75;;;7.95;;
39078;SDS011;24829;49.208;12.080;2023-05-20T11:51:42;9.07;;;8.18;;
39078;SDS011;24829;49.208;12.080;2023-05-20T11:54:08;12.93;;;7.90;;
39078;SDS011;24829;49.208;12.080;2023-05-20T11:56:35;9.35;;;8.35;;
39078;SDS011;24829;49.208;12.080;2023-05-20T11:59:01;10.55;;;7.93;;
39078;SDS011;24829;49.208;12.080;2023-05-20T12:01:29;10.20;;;8.30;;
39078;SDS011;24829;49.208;12.080;2023-05-20T12:03:57;9.80;;;7.88;;
39078;SDS011;24829;49.208;12.080;2023-05-20T12:06:23;12.30;;;8.40;;
39078;SDS011;24829;49.208;12.080;2023-05-20T12:08:48;8.77;;;7.93;;
39078;SDS011;24829;49.208;12.080;2023-05-20T12:11:15;10.68;;;8.23;;
39078;SDS011;24829;49.208;12.080;2023-05-20T12:13:40;9.38;;;8.30;;
39078;SDS011;24829;49.208;12.080;2023-05-20T12:16:06;7.90;;;7.18;;
39078;SDS011;24829;49.208;12.080;2023-05-20T12:18:32;9.20;;;7.32;;
39078;SDS011;24829;49.208;12.080;2023-05-20T12:20:58;8.13;;;7.30;;
39078;SDS011;24829;49.208;12.080;2023-05-20T12:23:24;9.35;;;7.32;;
39078;SDS011;24829;49.208;12.080;2023-05-20T12:25:50;11.23;;;7.75;;
39078;SDS011;24829;49.208;12.080;2023-05-20T12:28:15;9.63;;;7.93;;
39078;SDS011;24829;49.208;12.080;2023-05-20T12:30:41;9.50;;;7.50;;
39078;SDS011;24829;49.208;12.080;2023-05-20T12:33:08;10.90;;;6.90;;
39078;SDS011;24829;49.208;12.080;2023-05-20T12:35:37;9.73;;;7.10;;
39078;SDS011;24829;49.208;12.080;2023-05-20T12:38:04;9.00;;;7.03;;
39078;SDS011;24829;49.208;12.080;2023-05-20T12:40:30;8.32;;;7.55;;
39078;SDS011;24829;49.208;12.080;2023-05-20T12:42:56;7.97;;;7.18;;
39078;SDS011;24829;49.208;12.080;2023-05-20T12:45:22;9.65;;;7.25;;
39078;SDS011;24829;49.208;12.080;2023-05-20T12:47:48;8.48;;;7.68;;
39078;SDS011;24829;49.208;12.080;2023-05-20T12:50:15;7.95;;;7.15;;
39078;SDS011;24829;49.208;12.080;2023-05-20T12:52:40;8.20;;;7.40;;
39078;SDS011;24829;49.208;12.080;2023-05-20T12:55:06;7.97;;;7.20;;
39078;SDS011;24829;49.208;12.080;2023-05-20T12:57:37;7.53;;;6.80;;
39078;SDS011;24829;49.208;12.080;2023-05-20T13:00:07;10.32;;;7.30;;
39078;SDS011;24829;49.208;12.080;2023-05-20T13:02:34;7.55;;;6.82;;
39078;SDS011;24829;49.208;12.080;2023-05-20T13:05:00;7.53;;;6.85;;
39078;SDS011;24829;49.208;12.080;2023-05-20T13:07:26;7.70;;;6.85;;
39078;SDS011;24829;49.208;12.080;2023-05-20T13:09:52;7.43;;;6.70;;
39078;SDS011;24829;49.208;12.080;2023-05-20T13:12:17;10.55;;;7.03;;
39078;SDS011;24829;49.208;12.080;2023-05-20T13:14:43;9.60;;;6.95;;
39078;SDS011;24829;49.208;12.080;2023-05-20T13:17:10;7.47;;;6.78;;
39078;SDS011;24829;49.208;12.080;2023-05-20T13:19:36;10.70;;;6.93;;
39078;SDS011;24829;49.208;12.080;2023-05-20T13:22:02;7.75;;;6.05;;
39078;SDS011;24829;49.208;12.080;2023-05-20T13:24:28;10.40;;;6.22;;
39078;SDS011;24829;49.208;12.080;2023-05-20T13:26:54;9.18;;;6.75;;
39078;SDS011;24829;49.208;12.080;2023-05-20T13:29:20;5.72;;;5.22;;
39078;SDS011;24829;49.208;12.080;2023-05-20T13:31:45;7.22;;;5.57;;
39078;SDS011;24829;49.208;12.080;2023-05-20T13:34:11;8.02;;;6.38;;
39078;SDS011;24829;49.208;12.080;2023-05-20T13:36:37;8.70;;;6.45;;
39078;SDS011;24829;49.208;12.080;2023-05-20T13:39:04;7.15;;;6.13;;
39078;SDS011;24829;49.208;12.080;2023-05-20T13:41:30;8.18;;;6.63;;
39078;SDS011;24829;49.208;12.080;2023-05-20T13:43:56;8.35;;;6.35;;
39078;SDS011;24829;49.208;12.080;2023-05-20T13:46:21;6.78;;;6.07;;
39078;SDS011;24829;49.208;12.080;2023-05-20T13:48:47;7.95;;;6.22;;
39078;SDS011;24829;49.208;12.080;2023-05-20T13:51:12;8.25;;;6.20;;
39078;SDS011;24829;49.208;12.080;2023-05-20T13:53:38;9.77;;;6.50;;
39078;SDS011;24829;49.208;12.080;2023-05-20T13:56:04;7.85;;;6.00;;
39078;SDS011;24829;49.208;12.080;2023-05-20T13:58:33;7.70;;;5.30;;
39078;SDS011;24829;49.208;12.080;2023-05-20T14:01:01;6.45;;;5.85;;
39078;SDS011;24829;49.208;12.080;2023-05-20T14:03:30;8.88;;;5.78;;
39078;SDS011;24829;49.208;12.080;2023-05-20T14:05:57;8.15;;;6.00;;
39078;SDS011;24829;49.208;12.080;2023-05-20T14:08:23;8.70;;;6.40;;
39078;SDS011;24829;49.208;12.080;2023-05-20T14:10:48;8.18;;;5.63;;
39078;SDS011;24829;49.208;12.080;2023-05-20T14:13:18;8.55;;;6.18;;
39078;SDS011;24829;49.208;12.080;2023-05-20T14:15:47;8.32;;;5.40;;
39078;SDS011;24829;49.208;12.080;2023-05-20T14:18:14;9.23;;;5.55;;
39078;SDS011;24829;49.208;12.080;2023-05-20T14:20:40;7.75;;;6.88;;
39078;SDS011;24829;49.208;12.080;2023-05-20T14:23:05;7.03;;;5.13;;
39078;SDS011;24829;49.208;12.080;2023-05-20T14:25:31;7.43;;;5.03;;
39078;SDS011;24829;49.208;12.080;2023-05-20T14:27:56;7.72;;;4.78;;
39078;SDS011;24829;49.208;12.080;2023-05-20T14:30:22;10.55;;;5.68;;
39078;SDS011;24829;49.208;12.080;2023-05-20T14:32:48;7.07;;;5.10;;
39078;SDS011;24829;49.208;12.080;2023-05-20T14:35:14;10.93;;;5.88;;